Terminal Aerodrome Forecast
Issued by NWS Twin Cities, MN

Home | Current Version | Previous Version | Graphics & Text | Print | Product List | Glossary On
Versions: 1 2 3 4 5 6 7 8 9 10 11 12 13 14 15 16
834
FTUS43 KMPX 182320
TAFSTC
TAF
KSTC 182320Z 1900/1924 03005KT P6SM SCT150
     FM191000 00000KT 3SM BR SKC
     FM191300 13008KT P6SM SKC
     FM191800 13009G16KT P6SM VCSH SCT100 BKN250=

USA.gov is the U.S. government's official web portal to all federal, state and local government web resources and services.